Avery, Iowa
Current Conditions -  °F | °C
As of 5:53 AM on Monday 24 Nov 2014 (Local Time) from KOTM Reporting Station
Overcast Overcast  
Wind Chill: 17°   Ceiling: 1800
Heat Index: 31°   Visibility: 10mi
Dew Point: 25°   Wind: 26mph
Humidity: 79%   Direction: 290°WNW
Pressure: 29.39"   Gusts: 33mph
Location:  41.0299°N, 92.7795°W
Report Text: KOTM 241153Z AUTO 29023G29KT 10SM OVC018 M01/M04 A2939 RMK AO2 PK WND 30029/1137 SLP956 60002 70090 T10061039 10022 21006 53019
Loading
Personal Weather Stations






























Interactive Weather Map New forecast layout! Learn more

10-Day Weather Forecast

Advertisements
Track Severe Weather on mobile